sensor_id;sensor_type;location;lat;lon;timestamp;pressure;altitude;pressure_sealevel;temperature;humidity
19086;BME280;9675;51.538;6.728;2023-05-08T00:00:34;101647.06;;;17.75;100.00
19086;BME280;9675;51.538;6.728;2023-05-08T00:03:03;101657.44;;;17.74;100.00
19086;BME280;9675;51.538;6.728;2023-05-08T00:05:30;101649.53;;;17.72;100.00
19086;BME280;9675;51.538;6.728;2023-05-08T00:07:57;101652.13;;;17.71;100.00
19086;BME280;9675;51.538;6.728;2023-05-08T00:10:27;101645.97;;;17.69;100.00
19086;BME280;9675;51.538;6.728;2023-05-08T00:12:54;101650.22;;;17.67;100.00
19086;BME280;9675;51.538;6.728;2023-05-08T00:15:21;101653.69;;;17.66;100.00
19086;BME280;9675;51.538;6.728;2023-05-08T00:17:48;101655.34;;;17.64;100.00
19086;BME280;9675;51.538;6.728;2023-05-08T00:20:16;101655.25;;;17.61;100.00
19086;BME280;9675;51.538;6.728;2023-05-08T00:22:43;101657.81;;;17.59;100.00
19086;BME280;9675;51.538;6.728;2023-05-08T00:25:10;101649.88;;;17.58;100.00
19086;BME280;9675;51.538;6.728;2023-05-08T00:27:37;101653.31;;;17.57;100.00
19086;BME280;9675;51.538;6.728;2023-05-08T00:30:07;101650.69;;;17.55;100.00
19086;BME280;9675;51.538;6.728;2023-05-08T00:32:34;101647.13;;;17.53;100.00
19086;BME280;9675;51.538;6.728;2023-05-08T00:35:01;101645.34;;;17.52;100.00
19086;BME280;9675;51.538;6.728;2023-05-08T00:37:29;101642.72;;;17.51;100.00
19086;BME280;9675;51.538;6.728;2023-05-08T00:39:56;101646.97;;;17.49;100.00
19086;BME280;9675;51.538;6.728;2023-05-08T00:42:23;101642.59;;;17.48;100.00
19086;BME280;9675;51.538;6.728;2023-05-08T00:44:50;101645.09;;;17.45;100.00
19086;BME280;9675;51.538;6.728;2023-05-08T00:47:19;101645.94;;;17.43;100.00
19086;BME280;9675;51.538;6.728;2023-05-08T00:49:47;101646.75;;;17.42;100.00
19086;BME280;9675;51.538;6.728;2023-05-08T00:52:15;101652.78;;;17.40;100.00
19086;BME280;9675;51.538;6.728;2023-05-08T00:54:45;101646.59;;;17.38;100.00
19086;BME280;9675;51.538;6.728;2023-05-08T00:57:14;101647.41;;;17.35;100.00
19086;BME280;9675;51.538;6.728;2023-05-08T00:59:42;101640.41;;;17.34;100.00
19086;BME280;9675;51.538;6.728;2023-05-08T01:02:12;101641.25;;;17.33;100.00
19086;BME280;9675;51.538;6.728;2023-05-08T01:04:40;101642.91;;;17.31;100.00
19086;BME280;9675;51.538;6.728;2023-05-08T01:07:10;101642.88;;;17.30;100.00
19086;BME280;9675;51.538;6.728;2023-05-08T01:09:37;101639.31;;;17.28;100.00
19086;BME280;9675;51.538;6.728;2023-05-08T01:12:16;101639.22;;;17.25;100.00
19086;BME280;9675;51.538;6.728;2023-05-08T01:15:03;101650.44;;;17.24;100.00
19086;BME280;9675;51.538;6.728;2023-05-08T01:17:47;101645.19;;;17.22;100.00
19086;BME280;9675;51.538;6.728;2023-05-08T01:20:31;101637.28;;;17.19;100.00
19086;BME280;9675;51.538;6.728;2023-05-08T01:23:51;101646.81;;;17.19;100.00
19086;BME280;9675;51.538;6.728;2023-05-08T01:26:50;101646.66;;;17.16;100.00
19086;BME280;9675;51.538;6.728;2023-05-08T01:30:07;101652.75;;;17.15;100.00
19086;BME280;9675;51.538;6.728;2023-05-08T01:32:42;101648.28;;;17.12;100.00
19086;BME280;9675;51.538;6.728;2023-05-08T01:35:22;101649.94;;;17.10;100.00
19086;BME280;9675;51.538;6.728;2023-05-08T01:37:59;101648.19;;;17.09;100.00
19086;BME280;9675;51.538;6.728;2023-05-08T01:40:37;101645.47;;;17.06;100.00
19086;BME280;9675;51.538;6.728;2023-05-08T01:43:17;101652.34;;;17.04;100.00
19086;BME280;9675;51.538;6.728;2023-05-08T01:45:49;101654.06;;;17.04;100.00
19086;BME280;9675;51.538;6.728;2023-05-08T01:48:23;101654.00;;;17.02;100.00
19086;BME280;9675;51.538;6.728;2023-05-08T01:50:59;101645.22;;;16.98;100.00
19086;BME280;9675;51.538;6.728;2023-05-08T01:53:33;101651.16;;;16.96;100.00
19086;BME280;9675;51.538;6.728;2023-05-08T01:56:10;101650.25;;;16.94;100.00
19086;BME280;9675;51.538;6.728;2023-05-08T01:58:38;101659.75;;;16.93;100.00
19086;BME280;9675;51.538;6.728;2023-05-08T02:01:08;101660.59;;;16.92;100.00
19086;BME280;9675;51.538;6.728;2023-05-08T02:03:40;101664.81;;;16.89;100.00
19086;BME280;9675;51.538;6.728;2023-05-08T02:06:11;101665.63;;;16.88;100.00
19086;BME280;9675;51.538;6.728;2023-05-08T02:08:43;101674.19;;;16.85;100.00
19086;BME280;9675;51.538;6.728;2023-05-08T02:11:13;101675.88;;;16.83;100.00
19086;BME280;9675;51.538;6.728;2023-05-08T02:13:43;101673.19;;;16.82;100.00
19086;BME280;9675;51.538;6.728;2023-05-08T02:16:12;101676.56;;;16.79;100.00
19086;BME280;9675;51.538;6.728;2023-05-08T02:18:46;101673.91;;;16.78;100.00
19086;BME280;9675;51.538;6.728;2023-05-08T02:21:15;101678.97;;;16.75;100.00
19086;BME280;9675;51.538;6.728;2023-05-08T02:23:45;101679.81;;;16.74;100.00
19086;BME280;9675;51.538;6.728;2023-05-08T02:26:15;101678.06;;;16.73;100.00
19086;BME280;9675;51.538;6.728;2023-05-08T02:28:43;101676.28;;;16.72;100.00
19086;BME280;9675;51.538;6.728;2023-05-08T02:31:12;101673.53;;;16.69;100.00
19086;BME280;9675;51.538;6.728;2023-05-08T02:33:42;101677.00;;;16.68;100.00
19086;BME280;9675;51.538;6.728;2023-05-08T02:36:14;101679.47;;;16.65;100.00
19086;BME280;9675;51.538;6.728;2023-05-08T02:38:44;101668.97;;;16.62;100.00
19086;BME280;9675;51.538;6.728;2023-05-08T02:41:15;101675.81;;;16.60;100.00
19086;BME280;9675;51.538;6.728;2023-05-08T02:43:44;101675.81;;;16.60;100.00
19086;BME280;9675;51.538;6.728;2023-05-08T02:46:15;101676.63;;;16.58;100.00
19086;BME280;9675;51.538;6.728;2023-05-08T02:48:54;101681.75;;;16.57;100.00
19086;BME280;9675;51.538;6.728;2023-05-08T02:51:28;101674.69;;;16.54;100.00
19086;BME280;9675;51.538;6.728;2023-05-08T02:54:09;101680.72;;;16.53;100.00
19086;BME280;9675;51.538;6.728;2023-05-08T02:56:46;101674.63;;;16.53;100.00
19086;BME280;9675;51.538;6.728;2023-05-08T02:59:19;101665.91;;;16.51;100.00
19086;BME280;9675;51.538;6.728;2023-05-08T03:01:53;101671.03;;;16.49;100.00
19086;BME280;9675;51.538;6.728;2023-05-08T03:04:36;101670.97;;;16.48;100.00
19086;BME280;9675;51.538;6.728;2023-05-08T03:07:06;101668.34;;;16.46;100.00
19086;BME280;9675;51.538;6.728;2023-05-08T03:09:41;101665.75;;;16.46;100.00
19086;BME280;9675;51.538;6.728;2023-05-08T03:12:13;101666.56;;;16.45;100.00
19086;BME280;9675;51.538;6.728;2023-05-08T03:14:46;101663.00;;;16.43;100.00
19086;BME280;9675;51.538;6.728;2023-05-08T03:17:17;101660.28;;;16.40;100.00
19086;BME280;9675;51.538;6.728;2023-05-08T03:19:51;101662.88;;;16.40;100.00
19086;BME280;9675;51.538;6.728;2023-05-08T03:22:22;101664.59;;;16.40;100.00
19086;BME280;9675;51.538;6.728;2023-05-08T03:24:52;101662.00;;;16.40;100.00
19086;BME280;9675;51.538;6.728;2023-05-08T03:27:20;101662.75;;;16.37;100.00
19086;BME280;9675;51.538;6.728;2023-05-08T03:29:48;101662.72;;;16.36;100.00
19086;BME280;9675;51.538;6.728;2023-05-08T03:32:18;101661.75;;;16.34;100.00
19086;BME280;9675;51.538;6.728;2023-05-08T03:34:49;101658.22;;;16.32;100.00
19086;BME280;9675;51.538;6.728;2023-05-08T03:37:17;101665.97;;;16.30;100.00
19086;BME280;9675;51.538;6.728;2023-05-08T03:39:45;101668.50;;;16.29;100.00
19086;BME280;9675;51.538;6.728;2023-05-08T03:42:12;101667.56;;;16.27;100.00
19086;BME280;9675;51.538;6.728;2023-05-08T03:44:47;101670.91;;;16.24;100.00
19086;BME280;9675;51.538;6.728;2023-05-08T03:47:16;101675.28;;;16.25;100.00
19086;BME280;9675;51.538;6.728;2023-05-08T03:49:45;101680.34;;;16.22;100.00
19086;BME280;9675;51.538;6.728;2023-05-08T03:52:14;101679.50;;;16.22;100.00
19086;BME280;9675;51.538;6.728;2023-05-08T03:54:42;101676.81;;;16.20;100.00
19086;BME280;9675;51.538;6.728;2023-05-08T03:57:09;101670.66;;;16.18;100.00
19086;BME280;9675;51.538;6.728;2023-05-08T03:59:45;101670.59;;;16.16;100.00
19086;BME280;9675;51.538;6.728;2023-05-08T04:02:24;101665.34;;;16.15;100.00
19086;BME280;9675;51.538;6.728;2023-05-08T04:05:01;101672.19;;;16.13;100.00
19086;BME280;9675;51.538;6.728;2023-05-08T04:07:37;101674.84;;;16.14;100.00
19086;BME280;9675;51.538;6.728;2023-05-08T04:10:15;101675.59;;;16.12;100.00
19086;BME280;9675;51.538;6.728;2023-05-08T04:12:56;101678.16;;;16.10;100.00
19086;BME280;9675;51.538;6.728;2023-05-08T04:15:30;101674.59;;;16.08;100.00
19086;BME280;9675;51.538;6.728;2023-05-08T04:18:03;101673.59;;;16.05;100.00
19086;BME280;9675;51.538;6.728;2023-05-08T04:20:32;101678.03;;;16.07;100.00
19086;BME280;9675;51.538;6.728;2023-05-08T04:23:02;101682.31;;;16.07;100.00
19086;BME280;9675;51.538;6.728;2023-05-08T04:25:32;101676.19;;;16.05;100.00
19086;BME280;9675;51.538;6.728;2023-05-08T04:28:03;101678.66;;;16.02;100.00
19086;BME280;9675;51.538;6.728;2023-05-08T04:30:30;101685.56;;;16.01;100.00
19086;BME280;9675;51.538;6.728;2023-05-08T04:33:01;101694.19;;;16.00;100.00
19086;BME280;9675;51.538;6.728;2023-05-08T04:35:30;101681.13;;;15.99;100.00
19086;BME280;9675;51.538;6.728;2023-05-08T04:37:58;101681.97;;;15.98;100.00
19086;BME280;9675;51.538;6.728;2023-05-08T04:40:26;101681.97;;;15.98;100.00
19086;BME280;9675;51.538;6.728;2023-05-08T04:42:53;101682.75;;;15.95;100.00
19086;BME280;9675;51.538;6.728;2023-05-08T04:45:21;101682.75;;;15.95;100.00
19086;BME280;9675;51.538;6.728;2023-05-08T04:47:48;101687.03;;;15.95;100.00
19086;BME280;9675;51.538;6.728;2023-05-08T04:50:15;101685.25;;;15.94;100.00
19086;BME280;9675;51.538;6.728;2023-05-08T04:52:42;101681.66;;;15.90;100.00
19086;BME280;9675;51.538;6.728;2023-05-08T04:55:09;101696.47;;;15.93;100.00
19086;BME280;9675;51.538;6.728;2023-05-08T04:57:38;101697.28;;;15.92;100.00
19086;BME280;9675;51.538;6.728;2023-05-08T05:00:07;101694.66;;;15.90;100.00
19086;BME280;9675;51.538;6.728;2023-05-08T05:02:34;101702.38;;;15.89;100.00
19086;BME280;9675;51.538;6.728;2023-05-08T05:05:01;101698.06;;;15.89;100.00
19086;BME280;9675;51.538;6.728;2023-05-08T05:07:28;101705.78;;;15.88;100.00
19086;BME280;9675;51.538;6.728;2023-05-08T05:09:55;101704.81;;;15.86;100.00
19086;BME280;9675;51.538;6.728;2023-05-08T05:12:22;101699.59;;;15.84;100.00
19086;BME280;9675;51.538;6.728;2023-05-08T05:14:50;101707.31;;;15.83;100.00
19086;BME280;9675;51.538;6.728;2023-05-08T05:17:17;101708.94;;;15.81;100.00
19086;BME280;9675;51.538;6.728;2023-05-08T05:19:44;101706.28;;;15.79;100.00
19086;BME280;9675;51.538;6.728;2023-05-08T05:22:11;101707.19;;;15.80;100.00
19086;BME280;9675;51.538;6.728;2023-05-08T05:24:38;101711.41;;;15.78;100.00
19086;BME280;9675;51.538;6.728;2023-05-08T05:27:06;101704.59;;;15.80;100.00
19086;BME280;9675;51.538;6.728;2023-05-08T05:29:33;101707.19;;;15.80;100.00
19086;BME280;9675;51.538;6.728;2023-05-08T05:32:02;101710.59;;;15.79;100.00
19086;BME280;9675;51.538;6.728;2023-05-08T05:34:29;101713.19;;;15.79;100.00
19086;BME280;9675;51.538;6.728;2023-05-08T05:36:56;101717.44;;;15.77;100.00
19086;BME280;9675;51.538;6.728;2023-05-08T05:39:23;101717.44;;;15.77;100.00
19086;BME280;9675;51.538;6.728;2023-05-08T05:41:50;101720.91;;;15.77;100.00
19086;BME280;9675;51.538;6.728;2023-05-08T05:44:17;101714.81;;;15.77;100.00
19086;BME280;9675;51.538;6.728;2023-05-08T05:46:44;101706.22;;;15.78;100.00
19086;BME280;9675;51.538;6.728;2023-05-08T05:49:13;101711.41;;;15.78;100.00
19086;BME280;9675;51.538;6.728;2023-05-08T05:51:40;101713.19;;;15.79;100.00
19086;BME280;9675;51.538;6.728;2023-05-08T05:54:07;101708.81;;;15.78;100.00
19086;BME280;9675;51.538;6.728;2023-05-08T05:56:34;101714.00;;;15.78;100.00
19086;BME280;9675;51.538;6.728;2023-05-08T05:59:00;101709.72;;;15.78;100.00
19086;BME280;9675;51.538;6.728;2023-05-08T06:01:27;101714.91;;;15.78;100.00
19086;BME280;9675;51.538;6.728;2023-05-08T06:03:54;101718.38;;;15.79;100.00
19086;BME280;9675;51.538;6.728;2023-05-08T06:06:23;101721.00;;;15.79;100.00
19086;BME280;9675;51.538;6.728;2023-05-08T06:08:50;101722.78;;;15.80;100.00
19086;BME280;9675;51.538;6.728;2023-05-08T06:11:17;101715.91;;;15.82;100.00
19086;BME280;9675;51.538;6.728;2023-05-08T06:13:44;101722.88;;;15.83;100.00
19086;BME280;9675;51.538;6.728;2023-05-08T06:16:11;101724.75;;;15.85;100.00
19086;BME280;9675;51.538;6.728;2023-05-08T06:18:38;101723.06;;;15.87;100.00
19086;BME280;9675;51.538;6.728;2023-05-08T06:21:05;101730.13;;;15.90;100.00
19086;BME280;9675;51.538;6.728;2023-05-08T06:23:34;101737.22;;;15.94;100.00
19086;BME280;9675;51.538;6.728;2023-05-08T06:26:01;101732.09;;;15.95;100.00
19086;BME280;9675;51.538;6.728;2023-05-08T06:28:28;101738.22;;;15.97;100.00
19086;BME280;9675;51.538;6.728;2023-05-08T06:30:55;101738.38;;;16.00;100.00
19086;BME280;9675;51.538;6.728;2023-05-08T06:33:22;101739.38;;;16.04;100.00
19086;BME280;9675;51.538;6.728;2023-05-08T06:35:49;101744.75;;;16.08;100.00
19086;BME280;9675;51.538;6.728;2023-05-08T06:38:16;101737.97;;;16.12;100.00
19086;BME280;9675;51.538;6.728;2023-05-08T06:40:45;101741.59;;;16.15;100.00
19086;BME280;9675;51.538;6.728;2023-05-08T06:43:14;101744.38;;;16.20;100.00
19086;BME280;9675;51.538;6.728;2023-05-08T06:45:42;101746.28;;;16.24;100.00
19086;BME280;9675;51.538;6.728;2023-05-08T06:48:10;101743.78;;;16.27;100.00
19086;BME280;9675;51.538;6.728;2023-05-08T06:50:37;101744.88;;;16.32;100.00
19086;BME280;9675;51.538;6.728;2023-05-08T06:53:04;101752.91;;;16.38;100.00
19086;BME280;9675;51.538;6.728;2023-05-08T06:55:31;101751.38;;;16.43;100.00
19086;BME280;9675;51.538;6.728;2023-05-08T06:58:00;101744.66;;;16.48;100.00
19086;BME280;9675;51.538;6.728;2023-05-08T07:00:27;101749.19;;;16.52;100.00
19086;BME280;9675;51.538;6.728;2023-05-08T07:02:54;101743.28;;;16.56;100.00
19086;BME280;9675;51.538;6.728;2023-05-08T07:05:21;101748.69;;;16.61;100.00
19086;BME280;9675;51.538;6.728;2023-05-08T07:07:48;101747.22;;;16.68;100.00
19086;BME280;9675;51.538;6.728;2023-05-08T07:10:18;101750.00;;;16.72;100.00
19086;BME280;9675;51.538;6.728;2023-05-08T07:12:47;101747.56;;;16.77;100.00
19086;BME280;9675;51.538;6.728;2023-05-08T07:15:15;101756.44;;;16.82;100.00
19086;BME280;9675;51.538;6.728;2023-05-08T07:17:42;101751.34;;;16.85;100.00
19086;BME280;9675;51.538;6.728;2023-05-08T07:20:10;101754.13;;;16.89;100.00
19086;BME280;9675;51.538;6.728;2023-05-08T07:22:37;101756.03;;;16.93;100.00
19086;BME280;9675;51.538;6.728;2023-05-08T07:25:05;101757.09;;;16.98;100.00
19086;BME280;9675;51.538;6.728;2023-05-08T07:27:32;101758.97;;;17.03;100.00
19086;BME280;9675;51.538;6.728;2023-05-08T07:30:00;101763.53;;;17.08;100.00
19086;BME280;9675;51.538;6.728;2023-05-08T07:32:30;101767.13;;;17.12;100.00
19086;BME280;9675;51.538;6.728;2023-05-08T07:34:57;101758.59;;;17.16;100.00
19086;BME280;9675;51.538;6.728;2023-05-08T07:37:24;101763.13;;;17.20;100.00
19086;BME280;9675;51.538;6.728;2023-05-08T07:39:51;101762.38;;;17.24;100.00
19086;BME280;9675;51.538;6.728;2023-05-08T07:42:18;101764.28;;;17.28;100.00
19086;BME280;9675;51.538;6.728;2023-05-08T07:44:46;101761.84;;;17.32;100.00
19086;BME280;9675;51.538;6.728;2023-05-08T07:47:12;101766.28;;;17.35;100.00
19086;BME280;9675;51.538;6.728;2023-05-08T07:49:41;101770.75;;;17.39;100.00
19086;BME280;9675;51.538;6.728;2023-05-08T07:52:08;101768.31;;;17.43;100.00
19086;BME280;9675;51.538;6.728;2023-05-08T07:54:35;101760.69;;;17.48;100.00
19086;BME280;9675;51.538;6.728;2023-05-08T07:57:02;101757.31;;;17.51;100.00
19086;BME280;9675;51.538;6.728;2023-05-08T07:59:29;101768.72;;;17.54;100.00
19086;BME280;9675;51.538;6.728;2023-05-08T08:01:56;101761.06;;;17.59;100.00
19086;BME280;9675;51.538;6.728;2023-05-08T08:04:23;101766.47;;;17.63;100.00
19086;BME280;9675;51.538;6.728;2023-05-08T08:06:51;101762.31;;;17.68;100.00
19086;BME280;9675;51.538;6.728;2023-05-08T08:09:18;101759.03;;;17.74;100.00
19086;BME280;9675;51.538;6.728;2023-05-08T08:11:45;101754.78;;;17.76;100.00
19086;BME280;9675;51.538;6.728;2023-05-08T08:14:12;101760.19;;;17.82;100.00
19086;BME280;9675;51.538;6.728;2023-05-08T08:16:39;101753.44;;;17.87;100.00
19086;BME280;9675;51.538;6.728;2023-05-08T08:19:07;101756.22;;;17.93;100.00
19086;BME280;9675;51.538;6.728;2023-05-08T08:21:35;101763.44;;;18.00;100.00
19086;BME280;9675;51.538;6.728;2023-05-08T08:24:04;101759.25;;;18.05;100.00
19086;BME280;9675;51.538;6.728;2023-05-08T08:26:31;101754.25;;;18.11;100.00
19086;BME280;9675;51.538;6.728;2023-05-08T08:28:58;101756.25;;;18.18;100.00
19086;BME280;9675;51.538;6.728;2023-05-08T08:31:25;101752.06;;;18.23;100.00
19086;BME280;9675;51.538;6.728;2023-05-08T08:33:52;101746.19;;;18.31;100.00
19086;BME280;9675;51.538;6.728;2023-05-08T08:36:19;101754.22;;;18.37;100.00
19086;BME280;9675;51.538;6.728;2023-05-08T08:38:46;101738.72;;;18.41;100.00
19086;BME280;9675;51.538;6.728;2023-05-08T08:41:15;101748.41;;;18.45;100.00
19086;BME280;9675;51.538;6.728;2023-05-08T08:43:42;101754.66;;;18.50;100.00
19086;BME280;9675;51.538;6.728;2023-05-08T08:46:11;101752.22;;;18.55;100.00
19086;BME280;9675;51.538;6.728;2023-05-08T08:48:44;101755.88;;;18.60;100.00
19086;BME280;9675;51.538;6.728;2023-05-08T08:51:22;101751.69;;;18.65;100.00
19086;BME280;9675;51.538;6.728;2023-05-08T08:54:02;101748.38;;;18.71;100.00
19086;BME280;9675;51.538;6.728;2023-05-08T08:56:31;101754.66;;;18.77;100.00
19086;BME280;9675;51.538;6.728;2023-05-08T08:59:00;101749.56;;;18.80;100.00
19086;BME280;9675;51.538;6.728;2023-05-08T09:01:32;101765.38;;;18.86;100.00
19086;BME280;9675;51.538;6.728;2023-05-08T09:04:01;101756.84;;;18.90;100.00
19086;BME280;9675;51.538;6.728;2023-05-08T09:06:28;101757.00;;;18.96;100.00
19086;BME280;9675;51.538;6.728;2023-05-08T09:08:56;101750.16;;;19.00;100.00
19086;BME280;9675;51.538;6.728;2023-05-08T09:11:23;101760.66;;;19.01;100.00
19086;BME280;9675;51.538;6.728;2023-05-08T09:13:53;101759.00;;;19.05;100.00
19086;BME280;9675;51.538;6.728;2023-05-08T09:16:21;101772.13;;;19.06;100.00
19086;BME280;9675;51.538;6.728;2023-05-08T09:18:48;101772.16;;;19.08;100.00
19086;BME280;9675;51.538;6.728;2023-05-08T09:21:16;101771.25;;;19.07;100.00
19086;BME280;9675;51.538;6.728;2023-05-08T09:23:56;101772.28;;;19.13;100.00
19086;BME280;9675;51.538;6.728;2023-05-08T09:26:29;101769.78;;;19.16;100.00
19086;BME280;9675;51.538;6.728;2023-05-08T09:29:12;101769.84;;;19.19;100.00
19086;BME280;9675;51.538;6.728;2023-05-08T09:31:42;101760.34;;;19.21;100.00
19086;BME280;9675;51.538;6.728;2023-05-08T09:34:20;101770.09;;;19.28;100.00
19086;BME280;9675;51.538;6.728;2023-05-08T09:36:49;101764.06;;;19.29;100.00
19086;BME280;9675;51.538;6.728;2023-05-08T09:39:22;101765.81;;;19.30;100.00
19086;BME280;9675;51.538;6.728;2023-05-08T09:41:56;101760.03;;;19.40;100.00
19086;BME280;9675;51.538;6.728;2023-05-08T09:44:25;101760.22;;;19.46;100.00
19086;BME280;9675;51.538;6.728;2023-05-08T09:47:09;101750.84;;;19.52;100.00
19086;BME280;9675;51.538;6.728;2023-05-08T09:49:36;101755.25;;;19.55;100.00
19086;BME280;9675;51.538;6.728;2023-05-08T09:52:05;101751.09;;;19.62;100.00
19086;BME280;9675;51.538;6.728;2023-05-08T09:54:32;101748.59;;;19.66;100.00
19086;BME280;9675;51.538;6.728;2023-05-08T09:57:10;101754.78;;;19.68;100.00
19086;BME280;9675;51.538;6.728;2023-05-08T09:59:39;101745.31;;;19.73;100.00
19086;BME280;9675;51.538;6.728;2023-05-08T10:02:10;101759.28;;;19.75;100.00
19086;BME280;9675;51.538;6.728;2023-05-08T10:04:40;101754.16;;;19.78;100.00
19086;BME280;9675;51.538;6.728;2023-05-08T10:07:07;101738.56;;;19.81;100.00
19086;BME280;9675;51.538;6.728;2023-05-08T10:09:34;101742.16;;;19.86;100.00
19086;BME280;9675;51.538;6.728;2023-05-08T10:12:02;101744.00;;;19.89;100.00
19086;BME280;9675;51.538;6.728;2023-05-08T10:14:29;101742.34;;;19.92;100.00
19086;BME280;9675;51.538;6.728;2023-05-08T10:17:06;101741.72;;;20.03;100.00
19086;BME280;9675;51.538;6.728;2023-05-08T10:19:40;101742.78;;;20.11;100.00
19086;BME280;9675;51.538;6.728;2023-05-08T10:22:14;101739.59;;;20.22;100.00
19086;BME280;9675;51.538;6.728;2023-05-08T10:24:44;101748.69;;;20.36;100.00
19086;BME280;9675;51.538;6.728;2023-05-08T10:27:19;101738.72;;;20.56;100.00
19086;BME280;9675;51.538;6.728;2023-05-08T10:29:54;101739.22;;;20.77;100.00
19086;BME280;9675;51.538;6.728;2023-05-08T10:32:23;101730.06;;;20.98;98.05
19086;BME280;9675;51.538;6.728;2023-05-08T10:34:55;101734.91;;;21.20;95.53
19086;BME280;9675;51.538;6.728;2023-05-08T10:37:28;101731.75;;;21.36;91.90
19086;BME280;9675;51.538;6.728;2023-05-08T10:39:57;101732.78;;;21.44;91.45
19086;BME280;9675;51.538;6.728;2023-05-08T10:42:26;101729.28;;;21.44;86.63
19086;BME280;9675;51.538;6.728;2023-05-08T10:44:54;101728.44;;;21.46;85.37
19086;BME280;9675;51.538;6.728;2023-05-08T10:47:29;101724.97;;;21.47;85.60
19086;BME280;9675;51.538;6.728;2023-05-08T10:50:12;101719.84;;;21.53;85.38
19086;BME280;9675;51.538;6.728;2023-05-08T10:52:49;101722.53;;;21.55;82.82
19086;BME280;9675;51.538;6.728;2023-05-08T10:55:24;101719.91;;;21.56;82.65
19086;BME280;9675;51.538;6.728;2023-05-08T10:58:11;101730.47;;;21.59;84.21
19086;BME280;9675;51.538;6.728;2023-05-08T11:01:13;101731.34;;;21.60;84.17
19086;BME280;9675;51.538;6.728;2023-05-08T11:03:45;101718.22;;;21.58;84.40
19086;BME280;9675;51.538;6.728;2023-05-08T11:06:13;101721.69;;;21.57;86.44
19086;BME280;9675;51.538;6.728;2023-05-08T11:08:50;101714.78;;;21.62;85.01
19086;BME280;9675;51.538;6.728;2023-05-08T11:11:30;101712.25;;;21.67;83.97
19086;BME280;9675;51.538;6.728;2023-05-08T11:14:12;101714.91;;;21.69;82.92
19086;BME280;9675;51.538;6.728;2023-05-08T11:17:05;101713.19;;;21.71;83.17
19086;BME280;9675;51.538;6.728;2023-05-08T11:19:35;101713.25;;;21.74;80.98
19086;BME280;9675;51.538;6.728;2023-05-08T11:22:14;101713.31;;;21.78;80.79
19086;BME280;9675;51.538;6.728;2023-05-08T11:24:49;101709.00;;;21.82;79.61
19086;BME280;9675;51.538;6.728;2023-05-08T11:27:30;101709.13;;;21.86;79.91
19086;BME280;9675;51.538;6.728;2023-05-08T11:30:32;101708.25;;;21.89;78.43
19086;BME280;9675;51.538;6.728;2023-05-08T11:33:14;101708.31;;;21.92;76.17
19086;BME280;9675;51.538;6.728;2023-05-08T11:35:53;101705.91;;;22.02;74.33
19086;BME280;9675;51.538;6.728;2023-05-08T11:38:24;101702.66;;;22.19;74.66
19086;BME280;9675;51.538;6.728;2023-05-08T11:40:57;101701.84;;;22.21;72.64
19086;BME280;9675;51.538;6.728;2023-05-08T11:44:08;101707.97;;;22.22;68.96
19086;BME280;9675;51.538;6.728;2023-05-08T11:46:43;101704.44;;;22.20;68.86
19086;BME280;9675;51.538;6.728;2023-05-08T11:49:16;101705.22;;;22.14;70.51
19086;BME280;9675;51.538;6.728;2023-05-08T11:51:48;101705.22;;;22.14;71.29
19086;BME280;9675;51.538;6.728;2023-05-08T11:54:21;101700.84;;;22.15;68.85
19086;BME280;9675;51.538;6.728;2023-05-08T11:56:50;101701.78;;;22.18;69.23
19086;BME280;9675;51.538;6.728;2023-05-08T11:59:19;101686.09;;;22.21;68.48
19086;BME280;9675;51.538;6.728;2023-05-08T12:01:48;101697.50;;;22.22;68.44
19086;BME280;9675;51.538;6.728;2023-05-08T12:04:15;101694.09;;;22.30;68.69
19086;BME280;9675;51.538;6.728;2023-05-08T12:06:42;101695.13;;;22.40;69.22
19086;BME280;9675;51.538;6.728;2023-05-08T12:09:13;101697.03;;;22.49;68.51
19086;BME280;9675;51.538;6.728;2023-05-08T12:11:41;101697.97;;;22.54;67.58
19086;BME280;9675;51.538;6.728;2023-05-08T12:14:09;101701.47;;;22.53;66.77
19086;BME280;9675;51.538;6.728;2023-05-08T12:16:37;101698.81;;;22.53;65.54
19086;BME280;9675;51.538;6.728;2023-05-08T12:19:09;101701.44;;;22.51;64.91
19086;BME280;9675;51.538;6.728;2023-05-08T12:21:36;101697.03;;;22.49;64.80
19086;BME280;9675;51.538;6.728;2023-05-08T12:24:05;101686.56;;;22.52;64.80
19086;BME280;9675;51.538;6.728;2023-05-08T12:26:36;101692.66;;;22.51;64.49
19086;BME280;9675;51.538;6.728;2023-05-08T12:29:05;101695.28;;;22.51;65.13
19086;BME280;9675;51.538;6.728;2023-05-08T12:31:33;101689.22;;;22.55;65.71
19086;BME280;9675;51.538;6.728;2023-05-08T12:34:02;101691.88;;;22.56;64.59
19086;BME280;9675;51.538;6.728;2023-05-08T12:36:33;101693.66;;;22.60;65.56
19086;BME280;9675;51.538;6.728;2023-05-08T12:39:12;101688.53;;;22.68;65.83
19086;BME280;9675;51.538;6.728;2023-05-08T12:41:47;101687.69;;;22.69;65.62
19086;BME280;9675;51.538;6.728;2023-05-08T12:44:20;101675.50;;;22.72;65.89
19086;BME280;9675;51.538;6.728;2023-05-08T12:46:54;101682.59;;;22.78;65.48
19086;BME280;9675;51.538;6.728;2023-05-08T12:49:24;101679.13;;;22.82;64.53
19086;BME280;9675;51.538;6.728;2023-05-08T12:52:01;101687.03;;;22.85;63.73
19086;BME280;9675;51.538;6.728;2023-05-08T12:54:36;101674.09;;;22.99;61.82
19086;BME280;9675;51.538;6.728;2023-05-08T12:57:11;101672.53;;;23.14;60.98
19086;BME280;9675;51.538;6.728;2023-05-08T12:59:40;101679.59;;;23.21;61.00
19086;BME280;9675;51.538;6.728;2023-05-08T13:02:16;101674.34;;;23.21;60.98
19086;BME280;9675;51.538;6.728;2023-05-08T13:04:44;101666.56;;;23.29;60.19
19086;BME280;9675;51.538;6.728;2023-05-08T13:07:12;101663.09;;;23.35;60.03
19086;BME280;9675;51.538;6.728;2023-05-08T13:09:54;101662.16;;;23.28;60.50
19086;BME280;9675;51.538;6.728;2023-05-08T13:12:22;101659.47;;;23.23;61.10